Test XHTML 1.0 Strict Page for WU-History Testing
Histσrico de la Estaciσn METEOCORUΡA
 
Diario Datos del Agosto 21, 2018 Unidades:  Metrico    Inglιs   Ambos
« Prev Dia
Sig Dia »
Diario Semanal Mensual Anual Rango
  Actual: Max: Min: Media:
Temp: -7.4 °C -17.8 °C -7.4 °C -7.3 °C
Rocνo: -9.4 °C -17.8 °C -9.4 °C -9.5 °C
Humedad: 79 % Humidity % 76 % 76 %
Vel. viento: 3.1 km/h 0 km/h 0 km/h 3.4 km/h
Racha: 0.3 km/h 0 km/h - -
Viento:NNE - - NE
Presiσn: 34415.3 hPa 0 hPa 34411.9 hPa -
Lluvia: 0 mm      
Historical Graphs
 
 
Busqueda de Agosto 21, 2018
Hora Temp Rocνo Presiσn Viento Vel. viento Racha Humedad Ratio lluvia (/hora) Radiaciσn
-17.8 °C -17.8 °C 0 hPa Calm     Humidity % 0 mm SolarRadiationWatts/m^2 W/m2
00:04 -6.7 °C -9.1 °C 34452.6 hPa ENE 5.1 km/h 15.6 km/h 76 % 0 mm 0.00 W/m2
00:09 -6.8 °C -9.2 °C 34449.2 hPa SE 7.7 km/h 7.7 km/h 76 % 0 mm 0.00 W/m2
00:14 -6.8 °C -9.2 °C 34445.8 hPa East 5.1 km/h 10.3 km/h 76 % 0 mm 0.00 W/m2
00:19 -6.8 °C -9.2 °C 34445.8 hPa East 5.1 km/h 10.3 km/h 76 % 0 mm 0.00 W/m2
00:24 -6.8 °C -9.3 °C 34445.8 hPa ENE 2.6 km/h 18.2 km/h 76 % 0 mm 0.00 W/m2
00:29 -6.8 °C -9.3 °C 34445.8 hPa NE 2.6 km/h 12.9 km/h 76 % 0 mm 0.00 W/m2
00:34 -6.8 °C -9.3 °C 34445.8 hPa ENE 5.1 km/h 10.3 km/h 76 % 0 mm 0.00 W/m2
00:39 -6.8 °C -9.2 °C 34439 hPa ENE 9 km/h 5 km/h 76 % 0 mm 0.00 W/m2
00:44 -6.8 °C -9.2 °C 34439 hPa NE 17.9 km/h 9 km/h 76 % 0 mm 0.00 W/m2
00:49 -6.8 °C -9.3 °C 34445.8 hPa NNE 7.7 km/h 20.8 km/h 76 % 0 mm 0.00 W/m2
00:54 -6.8 °C -9.3 °C 34445.8 hPa NE 7.7 km/h 12.9 km/h 76 % 0 mm 0.00 W/m2
00:59 -6.8 °C -9.3 °C 34445.8 hPa NE 5.1 km/h 18.2 km/h 76 % 0 mm 0.00 W/m2
01:04 -6.8 °C -9.3 °C 34445.8 hPa NE 2.6 km/h 12.9 km/h 76 % 0 mm 0.00 W/m2
01:09 -6.8 °C -9.3 °C 34442.4 hPa NNE 5.1 km/h 12.9 km/h 76 % 0 mm 0.00 W/m2
01:14 -6.8 °C -9.3 °C 34442.4 hPa NE 5.1 km/h 12.9 km/h 76 % 0 mm 0.00 W/m2
01:19 -6.9 °C -9.3 °C 34442.4 hPa NE 2.6 km/h 7.7 km/h 76 % 0 mm 0.00 W/m2
01:24 -6.9 °C -9.3 °C 34439 hPa NE 2.6 km/h 7.7 km/h 76 % 0 mm 0.00 W/m2
01:29 -6.9 °C -9.3 °C 34435.6 hPa NE 7.7 km/h 0.8 km/h 76 % 0 mm 0.00 W/m2
01:34 -6.9 °C -9.3 °C 34442.4 hPa NE 2.6 km/h 7.7 km/h 76 % 0 mm 0.00 W/m2
01:39 -7 °C -9.3 °C 34442.4 hPa Calm   2.6 km/h 77 % 0 mm 0.00 W/m2
01:44 -7 °C -9.3 °C 34442.4 hPa Calm   2.6 km/h 77 % 0 mm 0.00 W/m2
01:49 -7.1 °C -9.3 °C 34442.4 hPa Calm     77 % 0 mm 0.00 W/m2
01:54 -7.1 °C -9.3 °C 34442.4 hPa Calm   2.6 km/h 77 % 0 mm 0.00 W/m2
01:59 -7.1 °C -9.3 °C 34442.4 hPa Calm   10.3 km/h 77 % 0 mm 0.00 W/m2
02:04 -7.1 °C -9.3 °C 34442.4 hPa NE 2.6 km/h 7.7 km/h 77 % 0 mm 0.00 W/m2
02:09 -7.1 °C -9.3 °C 34442.4 hPa Calm   7.7 km/h 77 % 0 mm 0.00 W/m2
02:14 -7 °C -9.3 °C 34439 hPa NE 2.6 km/h 10.3 km/h 77 % 0 mm 0.00 W/m2
02:19 -7.1 °C -9.3 °C 34439 hPa NE 2.6 km/h 7.7 km/h 77 % 0 mm 0.00 W/m2
02:24 -7.1 °C -9.3 °C 34439 hPa NNE 2.6 km/h 7.7 km/h 77 % 0 mm 0.00 W/m2
02:29 -7.1 °C -9.3 °C 34428.8 hPa NNE 10.3 km/h 6.8 km/h 77 % 0 mm 0.00 W/m2
02:34 -7.1 °C -9.4 °C 34432.2 hPa NNE 2.6 km/h 10.3 km/h 77 % 0 mm 0.00 W/m2
02:39 -7.1 °C -9.3 °C 34432.2 hPa NNE 2.6 km/h 7.7 km/h 78 % 0 mm 0.00 W/m2
02:44 -7.1 °C -9.4 °C 34432.2 hPa NNE 2.6 km/h 7.7 km/h 77 % 0 mm 0.00 W/m2
02:49 -7.2 °C -9.3 °C 34428.8 hPa Calm   2.6 km/h 78 % 0 mm 0.00 W/m2
02:54 -7.2 °C -9.3 °C 34428.8 hPa Calm   5.1 km/h 78 % 0 mm 0.00 W/m2
02:59 -7.2 °C -9.4 °C 34425.5 hPa Calm   2.6 km/h 78 % 0 mm 0.00 W/m2
03:04 -7.2 °C -9.4 °C 34418.7 hPa NNE 3.1 km/h 0.8 km/h 78 % 0 mm 0.00 W/m2
03:09 -7.3 °C -9.4 °C 34422.1 hPa Calm   2.6 km/h 78 % 0 mm 0.00 W/m2
03:14 -7.3 °C -9.4 °C 34418.7 hPa NNE 6 km/h 0.3 km/h 78 % 0 mm 0.00 W/m2
03:19 -7.3 °C -9.4 °C 34422.1 hPa Calm   5.1 km/h 78 % 0 mm 0.00 W/m2
03:24 -7.3 °C -9.4 °C 34418.7 hPa NNE 9 km/h 2.6 km/h 78 % 0 mm 0.00 W/m2
03:29 -7.3 °C -9.4 °C 34422.1 hPa NNE 2.6 km/h 7.7 km/h 78 % 0 mm 0.00 W/m2
03:34 -7.3 °C -9.4 °C 34422.1 hPa NNE 2.6 km/h 2.6 km/h 78 % 0 mm 0.00 W/m2
03:39 -7.3 °C -9.3 °C 34422.1 hPa Calm   2.6 km/h 79 % 0 mm 0.00 W/m2
03:44 -7.3 °C -9.3 °C 34422.1 hPa Calm   2.6 km/h 79 % 0 mm 0.00 W/m2
03:49 -7.3 °C -9.4 °C 34418.7 hPa Calm   5.1 km/h 79 % 0 mm 0.00 W/m2
03:54 -7.3 °C -9.4 °C 34418.7 hPa Calm   5.1 km/h 79 % 0 mm 0.00 W/m2
03:59 -7.3 °C -9.4 °C 34411.9 hPa NNE 6 km/h 0.8 km/h 79 % 0 mm 0.00 W/m2
04:04 -7.4 °C -9.4 °C 34415.3 hPa NNE 3.1 km/h 0.3 km/h 79 % 0 mm 0.00 W/m2
Meteocoruρa
Agradecimientos a Weather Underground - 1.5 mb